createdAt,value
2022-10-04T00:02:34.355Z,15.87
2022-10-04T00:05:09.042Z,15.86
2022-10-04T00:07:51.355Z,15.92
2022-10-04T00:10:22.829Z,15.95
2022-10-04T00:12:57.834Z,15.93
2022-10-04T00:15:40.510Z,15.93
2022-10-04T00:18:38.775Z,15.91
2022-10-04T00:21:13.390Z,15.91
2022-10-04T00:23:48.485Z,15.88
2022-10-04T00:26:54.093Z,15.92
2022-10-04T00:29:33.811Z,15.94
2022-10-04T00:32:32.622Z,15.95
2022-10-04T00:35:01.473Z,15.99
2022-10-04T00:37:50.322Z,15.97
2022-10-04T00:40:22.535Z,15.97
2022-10-04T00:42:59.806Z,15.98
2022-10-04T00:45:37.087Z,16.07
2022-10-04T00:48:31.642Z,16.03
2022-10-04T00:51:05.646Z,16.05
2022-10-04T00:53:46.675Z,16.04
2022-10-04T00:56:22.164Z,16.01
2022-10-04T00:59:13.987Z,15.98
2022-10-04T01:01:48.163Z,16.01
2022-10-04T01:04:29.949Z,15.97
2022-10-04T01:07:14.434Z,16.05
2022-10-04T01:09:51.482Z,16.09
2022-10-04T01:12:37.830Z,16.10
2022-10-04T01:15:10.626Z,16.06
2022-10-04T01:18:08.555Z,16.15
2022-10-04T01:20:41.280Z,16.12
2022-10-04T01:23:24.334Z,16.14
2022-10-04T01:25:53.923Z,16.10
2022-10-04T01:28:22.843Z,16.15
2022-10-04T01:30:54.386Z,16.10
2022-10-04T01:33:25.858Z,16.09
2022-10-04T01:35:54.987Z,16.11
2022-10-04T01:38:25.334Z,16.10
2022-10-04T01:41:00.707Z,16.07
2022-10-04T01:43:34.846Z,16.04
2022-10-04T01:46:14.788Z,16.10
2022-10-04T01:48:48.038Z,16.07
2022-10-04T01:51:23.439Z,16.10
2022-10-04T01:53:58.290Z,16.06
2022-10-04T01:56:33.096Z,16.04
2022-10-04T01:59:04.815Z,16.07
2022-10-04T02:01:41.017Z,16.08
2022-10-04T02:04:22.894Z,16.11
2022-10-04T02:07:04.251Z,16.05
2022-10-04T02:09:44.086Z,16.11
2022-10-04T02:12:18.629Z,16.15
2022-10-04T02:14:53.383Z,16.11
2022-10-04T02:17:28.067Z,16.11
2022-10-04T02:19:58.446Z,16.10
2022-10-04T02:22:27.893Z,16.21
2022-10-04T02:24:59.397Z,16.15
2022-10-04T02:27:30.386Z,16.18
2022-10-04T02:30:12.667Z,16.17
2022-10-04T02:33:00.860Z,16.08
2022-10-04T02:35:35.947Z,16.09
2022-10-04T02:38:15.111Z,16.16
2022-10-04T02:40:52.564Z,16.25
2022-10-04T02:43:26.626Z,16.21
2022-10-04T02:46:04.616Z,16.19
2022-10-04T02:48:41.984Z,16.14
2022-10-04T02:51:26.373Z,16.17
2022-10-04T02:54:16.373Z,16.14
2022-10-04T02:56:53.495Z,16.14
2022-10-04T02:59:23.769Z,16.15
2022-10-04T03:01:56.261Z,16.25
2022-10-04T03:04:28.349Z,16.27
2022-10-04T03:07:08.048Z,16.18
2022-10-04T03:09:39.277Z,16.18
2022-10-04T03:12:14.342Z,16.19
2022-10-04T03:14:44.088Z,16.20
2022-10-04T03:17:16.531Z,16.17
2022-10-04T03:19:48.890Z,16.22
2022-10-04T03:22:18.774Z,16.19
2022-10-04T03:24:50.698Z,16.22
2022-10-04T03:27:27.207Z,16.19
2022-10-04T03:29:59.636Z,16.14
2022-10-04T03:32:31.055Z,16.10
2022-10-04T03:35:09.273Z,16.17
2022-10-04T03:37:52.502Z,16.15
2022-10-04T03:40:27.336Z,16.17
2022-10-04T03:43:01.327Z,16.22
2022-10-04T03:45:34.770Z,16.19
2022-10-04T03:48:07.739Z,16.19
2022-10-04T03:50:41.341Z,16.19
2022-10-04T03:53:17.310Z,16.18
2022-10-04T03:56:03.984Z,16.24
2022-10-04T03:58:35.205Z,16.25
2022-10-04T04:01:15.287Z,16.24
2022-10-04T04:03:55.464Z,16.26
2022-10-04T04:06:26.094Z,16.24
2022-10-04T04:08:58.329Z,16.29
2022-10-04T04:11:29.209Z,16.24
2022-10-04T04:14:07.039Z,16.21
2022-10-04T04:16:42.466Z,16.21
2022-10-04T04:19:15.724Z,16.25
2022-10-04T04:21:47.545Z,16.24
2022-10-04T04:24:29.377Z,16.26
2022-10-04T04:27:04.178Z,16.31
2022-10-04T04:29:48.050Z,16.22
2022-10-04T04:32:23.506Z,16.22
2022-10-04T04:35:01.217Z,16.16
2022-10-04T04:37:32.180Z,16.16
2022-10-04T04:40:15.977Z,16.10
2022-10-04T04:42:46.045Z,16.20
2022-10-04T04:45:23.197Z,16.19
2022-10-04T04:47:57.510Z,16.16
2022-10-04T04:50:31.254Z,16.16
2022-10-04T04:53:06.856Z,16.17
2022-10-04T04:56:02.397Z,16.19
2022-10-04T04:58:41.678Z,16.20
2022-10-04T05:01:25.949Z,16.19
2022-10-04T05:04:06.111Z,16.23
2022-10-04T05:06:38.090Z,16.18
2022-10-04T05:09:26.031Z,16.09
2022-10-04T05:12:03.210Z,15.99
2022-10-04T05:14:33.737Z,15.99
2022-10-04T05:17:09.139Z,15.90
2022-10-04T05:19:41.199Z,15.81
2022-10-04T05:22:16.829Z,15.78
2022-10-04T05:24:49.571Z,15.74
2022-10-04T05:27:26.798Z,15.70
2022-10-04T05:30:06.611Z,15.68
2022-10-04T05:32:49.668Z,15.61
2022-10-04T05:35:19.928Z,15.66
2022-10-04T05:38:03.794Z,15.62
2022-10-04T05:40:45.001Z,15.65
2022-10-04T05:43:33.636Z,15.67
2022-10-04T05:46:24.283Z,15.64
2022-10-04T05:49:02.525Z,15.65
2022-10-04T05:51:34.141Z,15.65
2022-10-04T05:54:04.442Z,15.64
2022-10-04T05:57:20.900Z,15.62
2022-10-04T06:00:11.910Z,15.60
2022-10-04T06:03:15.265Z,15.68
2022-10-04T06:05:52.339Z,15.74
2022-10-04T06:08:32.701Z,15.81
2022-10-04T06:11:10.937Z,15.86
2022-10-04T06:14:09.868Z,15.82
2022-10-04T06:17:33.265Z,15.91
2022-10-04T06:20:15.256Z,15.97
2022-10-04T06:22:50.657Z,16.01
2022-10-04T06:25:26.879Z,16.02
2022-10-04T06:28:08.353Z,15.99
2022-10-04T06:31:02.679Z,15.93
2022-10-04T06:33:50.892Z,16.01
2022-10-04T06:36:57.644Z,15.90
2022-10-04T06:39:57.920Z,15.86
2022-10-04T06:43:00.220Z,15.84
2022-10-04T06:45:51.579Z,15.60
2022-10-04T06:48:59.087Z,15.59
2022-10-04T06:52:02.021Z,15.59
2022-10-04T06:54:49.659Z,15.61
2022-10-04T06:57:48.338Z,15.62
2022-10-04T07:00:22.312Z,15.69
2022-10-04T07:02:59.737Z,15.71
2022-10-04T07:05:33.396Z,15.73
2022-10-04T07:08:31.285Z,15.88
2022-10-04T07:11:12.323Z,15.88
2022-10-04T07:13:51.026Z,15.91
2022-10-04T07:16:41.822Z,15.94
2022-10-04T07:19:35.309Z,15.91
2022-10-04T07:22:19.000Z,15.93
2022-10-04T07:24:59.565Z,16.09
2022-10-04T07:27:34.001Z,16.20
2022-10-04T07:30:06.262Z,16.15
2022-10-04T07:32:38.996Z,16.29
2022-10-04T07:35:20.736Z,16.20
2022-10-04T07:37:59.460Z,16.23
2022-10-04T07:40:32.104Z,16.20
2022-10-04T07:43:08.850Z,16.22
2022-10-04T07:45:42.544Z,16.32
2022-10-04T07:48:18.027Z,16.27
2022-10-04T07:50:52.201Z,16.28
2022-10-04T07:53:28.376Z,16.27
2022-10-04T07:56:03.740Z,16.35
2022-10-04T07:58:47.701Z,16.46
2022-10-04T08:01:33.010Z,16.52
2022-10-04T08:04:21.421Z,16.53
2022-10-04T08:06:59.361Z,16.55
2022-10-04T08:09:47.636Z,16.55
2022-10-04T08:12:27.036Z,16.57
2022-10-04T08:15:24.058Z,16.58
2022-10-04T08:17:58.814Z,16.60
2022-10-04T08:20:38.362Z,16.65
2022-10-04T08:23:41.160Z,16.66
2022-10-04T08:26:35.817Z,16.58
2022-10-04T08:29:42.012Z,16.69
2022-10-04T08:32:39.514Z,16.62
2022-10-04T08:35:29.347Z,16.62
2022-10-04T08:38:49.667Z,16.58
2022-10-04T08:41:55.504Z,16.60
2022-10-04T08:45:06.604Z,16.63
2022-10-04T08:48:19.883Z,16.65
2022-10-04T08:51:21.601Z,16.63
2022-10-04T08:54:13.670Z,16.71
2022-10-04T08:56:59.822Z,16.77
2022-10-04T09:00:06.276Z,16.87
2022-10-04T09:03:24.643Z,16.99
2022-10-04T09:06:12.491Z,17.06
2022-10-04T09:09:15.395Z,16.99
2022-10-04T09:12:11.156Z,17.03
2022-10-04T09:15:05.502Z,17.02
2022-10-04T09:17:48.119Z,17.03
2022-10-04T09:20:38.648Z,17.00
2022-10-04T09:23:23.152Z,17.07
2022-10-04T09:26:11.751Z,17.11
2022-10-04T09:29:12.439Z,17.14
2022-10-04T09:32:27.057Z,17.16
2022-10-04T09:35:32.258Z,17.20
2022-10-04T09:39:01.220Z,17.18
2022-10-04T09:41:54.082Z,17.24
2022-10-04T09:44:52.648Z,17.30
2022-10-04T09:47:41.362Z,17.38
2022-10-04T09:50:43.145Z,17.23
2022-10-04T09:53:44.794Z,16.98
2022-10-04T09:56:50.434Z,16.77
2022-10-04T09:59:48.074Z,16.36
2022-10-04T10:02:55.239Z,16.05
2022-10-04T10:05:57.575Z,15.93
2022-10-04T10:08:35.076Z,15.89
2022-10-04T10:11:29.484Z,15.89
2022-10-04T10:14:31.913Z,15.84
2022-10-04T10:17:16.358Z,15.83
2022-10-04T10:20:17.065Z,15.82
2022-10-04T10:23:16.787Z,15.78
2022-10-04T10:26:06.172Z,15.74
2022-10-04T10:29:16.717Z,15.71
2022-10-04T10:32:15.448Z,15.74
2022-10-04T10:35:17.864Z,15.71
2022-10-04T10:38:23.261Z,15.68
2022-10-04T10:41:16.930Z,15.66
2022-10-04T10:44:04.939Z,15.56
2022-10-04T10:46:48.356Z,15.47
2022-10-04T10:49:34.304Z,15.46
2022-10-04T10:52:40.371Z,15.54
2022-10-04T10:55:33.494Z,15.64
2022-10-04T10:58:50.295Z,15.64
2022-10-04T11:01:42.778Z,15.78
2022-10-04T11:04:39.866Z,15.88
2022-10-04T11:07:46.775Z,15.98
2022-10-04T11:11:03.789Z,16.07
2022-10-04T11:14:12.914Z,16.12
2022-10-04T11:17:23.801Z,16.13
2022-10-04T11:20:28.112Z,16.14
2022-10-04T11:23:43.367Z,16.12
2022-10-04T11:26:48.503Z,16.11
2022-10-04T11:29:41.436Z,16.12
2022-10-04T11:32:42.327Z,16.22
2022-10-04T11:35:48.018Z,16.11
2022-10-04T11:38:50.622Z,16.17
2022-10-04T11:41:41.773Z,16.25
2022-10-04T11:47:40.250Z,16.21
2022-10-04T11:50:25.230Z,16.25
2022-10-04T11:53:19.490Z,16.21
2022-10-04T11:56:21.950Z,16.17
2022-10-04T11:59:15.149Z,16.26
2022-10-04T12:02:03.004Z,16.45
2022-10-04T12:05:16.186Z,16.50
2022-10-04T12:07:56.674Z,16.52
2022-10-04T12:10:30.295Z,16.57
2022-10-04T12:13:26.977Z,16.60
2022-10-04T12:16:29.987Z,16.57
2022-10-04T12:19:51.820Z,16.61
2022-10-04T12:22:44.965Z,16.55
2022-10-04T12:25:43.615Z,16.50
2022-10-04T12:28:45.777Z,16.60
2022-10-04T12:31:24.352Z,16.56
2022-10-04T12:34:00.298Z,16.66
2022-10-04T12:37:01.732Z,16.67
2022-10-04T12:39:52.814Z,16.82
2022-10-04T12:42:37.882Z,16.84
2022-10-04T12:45:27.951Z,16.94
2022-10-04T12:48:25.448Z,16.94
2022-10-04T12:51:09.961Z,16.93
2022-10-04T12:53:54.457Z,16.94
2022-10-04T12:56:44.169Z,17.03
2022-10-04T12:59:41.157Z,17.02
2022-10-04T13:02:37.977Z,16.96
2022-10-04T13:05:14.695Z,16.97
2022-10-04T13:08:05.200Z,16.94
2022-10-04T13:10:50.305Z,16.90
2022-10-04T13:13:42.703Z,16.86
2022-10-04T13:19:19.042Z,16.72
2022-10-04T13:22:10.005Z,16.66
2022-10-04T13:24:58.776Z,16.68
2022-10-04T13:27:37.772Z,16.67
2022-10-04T13:30:10.250Z,16.66
2022-10-04T13:32:53.462Z,16.66
2022-10-04T13:35:29.379Z,16.66
2022-10-04T13:38:24.455Z,16.65
2022-10-04T13:41:11.673Z,16.58
2022-10-04T13:44:15.689Z,16.50
2022-10-04T13:46:59.266Z,16.38
2022-10-04T13:49:38.889Z,16.31
2022-10-04T13:52:39.143Z,16.29
2022-10-04T13:55:47.653Z,16.22
2022-10-04T13:58:31.899Z,16.24
2022-10-04T14:01:34.777Z,16.24
2022-10-04T14:04:52.600Z,16.20
2022-10-04T14:07:42.522Z,16.24
2022-10-04T14:10:52.023Z,16.24
2022-10-04T14:14:11.977Z,16.17
2022-10-04T14:17:17.653Z,16.13
2022-10-04T14:20:26.582Z,16.09
2022-10-04T14:23:26.025Z,16.04
2022-10-04T14:26:35.465Z,16.06
2022-10-04T14:29:53.946Z,16.10
2022-10-04T14:37:18.666Z,16.18
2022-10-04T14:40:35.957Z,16.26
2022-10-04T14:51:41.480Z,16.29
2022-10-04T14:55:06.340Z,16.25
2022-10-04T14:57:59.551Z,16.24
2022-10-04T15:00:59.635Z,16.29
2022-10-04T15:03:46.515Z,16.25
2022-10-04T15:06:44.032Z,16.23
2022-10-04T15:09:37.284Z,16.35
2022-10-04T15:13:09.427Z,16.31
2022-10-04T15:15:53.370Z,16.27
2022-10-04T15:18:36.213Z,16.24
2022-10-04T15:21:13.482Z,16.22
2022-10-04T15:23:46.330Z,16.20
2022-10-04T15:26:45.591Z,16.16
2022-10-04T15:29:25.098Z,16.11
2022-10-04T15:32:14.787Z,16.07
2022-10-04T15:34:50.706Z,16.02
2022-10-04T15:37:27.958Z,16.01
2022-10-04T15:40:20.596Z,16.00
2022-10-04T15:43:20.274Z,15.96
2022-10-04T15:46:02.898Z,15.96
2022-10-04T15:49:06.087Z,15.96
2022-10-04T15:51:46.952Z,15.89
2022-10-04T15:54:42.161Z,15.89
2022-10-04T15:57:26.043Z,15.85
2022-10-04T15:59:58.625Z,15.83
2022-10-04T16:02:53.674Z,15.81
2022-10-04T16:05:36.868Z,15.81
2022-10-04T16:08:41.808Z,15.80
2022-10-04T16:11:38.444Z,15.82
2022-10-04T16:14:29.650Z,15.74
2022-10-04T16:17:30.216Z,15.69
2022-10-04T16:20:29.650Z,15.74
2022-10-04T16:23:30.021Z,15.73
2022-10-04T16:26:01.963Z,15.72
2022-10-04T16:29:00.909Z,15.73
2022-10-04T16:31:47.519Z,15.74
2022-10-04T16:34:37.230Z,15.72
2022-10-04T16:37:18.220Z,15.66
2022-10-04T16:40:02.793Z,15.64
2022-10-04T16:42:52.627Z,15.64
2022-10-04T16:45:37.888Z,15.66
2022-10-04T16:48:25.369Z,15.66
2022-10-04T16:51:24.721Z,15.66
2022-10-04T16:54:01.144Z,15.69
2022-10-04T16:57:11.320Z,15.67
2022-10-04T16:59:54.570Z,15.66
2022-10-04T17:02:56.524Z,15.62
2022-10-04T17:05:48.831Z,15.57
2022-10-04T17:08:50.119Z,15.57
2022-10-04T17:11:44.953Z,15.51
2022-10-04T17:14:58.964Z,15.49
2022-10-04T17:17:44.369Z,15.48
2022-10-04T17:20:24.322Z,15.50
2022-10-04T17:23:14.270Z,15.50
2022-10-04T17:25:57.613Z,15.48
2022-10-04T17:28:31.966Z,15.46
2022-10-04T17:31:10.274Z,15.44
2022-10-04T17:33:54.039Z,15.43
2022-10-04T17:36:40.721Z,15.40
2022-10-04T17:39:34.182Z,15.40
2022-10-04T17:42:20.961Z,15.37
2022-10-04T17:45:06.635Z,15.33
2022-10-04T17:47:58.133Z,15.29
2022-10-04T17:50:52.841Z,15.27
2022-10-04T17:53:43.939Z,15.26
2022-10-04T17:56:14.215Z,15.24
2022-10-04T17:58:59.395Z,15.25
2022-10-04T18:01:35.297Z,15.25
2022-10-04T18:04:10.929Z,15.27
2022-10-04T18:06:44.206Z,15.22
2022-10-04T18:09:21.212Z,15.22
2022-10-04T18:11:56.027Z,15.13
2022-10-04T18:14:49.233Z,15.04
2022-10-04T18:17:28.316Z,15.05
2022-10-04T18:20:14.002Z,14.93
2022-10-04T18:22:50.481Z,14.88
2022-10-04T18:25:23.830Z,14.85
2022-10-04T18:28:02.454Z,14.85
2022-10-04T18:30:59.244Z,14.81
2022-10-04T18:33:46.735Z,14.77
2022-10-04T18:36:18.672Z,14.73
2022-10-04T18:39:00.714Z,14.66
2022-10-04T18:41:50.622Z,14.64
2022-10-04T18:44:22.448Z,14.63
2022-10-04T18:46:58.041Z,14.64
2022-10-04T18:49:30.610Z,14.63
2022-10-04T18:52:22.992Z,14.62
2022-10-04T18:55:02.380Z,14.64
2022-10-04T18:57:58.407Z,14.60
2022-10-04T19:00:50.818Z,14.61
2022-10-04T19:03:31.799Z,14.62
2022-10-04T19:06:08.715Z,14.62
2022-10-04T19:08:47.398Z,14.64
2022-10-04T19:11:21.043Z,14.63
2022-10-04T19:13:56.515Z,14.68
2022-10-04T19:16:42.422Z,14.66
2022-10-04T19:19:29.628Z,14.65
2022-10-04T19:22:03.966Z,14.73
2022-10-04T19:25:20.863Z,14.76
2022-10-04T19:27:52.267Z,14.78
2022-10-04T19:30:24.340Z,14.81
2022-10-04T19:33:05.809Z,14.81
2022-10-04T19:35:51.119Z,14.87
2022-10-04T19:38:34.131Z,14.80
2022-10-04T19:41:12.618Z,14.76
2022-10-04T19:43:53.500Z,14.81
2022-10-04T19:46:36.357Z,14.85
2022-10-04T19:49:15.303Z,14.83
2022-10-04T19:51:51.591Z,14.86
2022-10-04T19:54:29.921Z,14.83
2022-10-04T19:57:03.078Z,14.89
2022-10-04T19:59:40.799Z,14.82
2022-10-04T20:02:11.228Z,14.79
2022-10-04T20:04:42.367Z,14.80
2022-10-04T20:07:24.148Z,14.83
2022-10-04T20:10:07.871Z,14.80
2022-10-04T20:12:39.310Z,14.78
2022-10-04T20:15:45.322Z,14.80
2022-10-04T20:18:53.952Z,14.79
2022-10-04T20:21:33.755Z,14.83
2022-10-04T20:24:03.802Z,14.87
2022-10-04T20:27:01.488Z,14.89
2022-10-04T20:30:01.933Z,14.87
2022-10-04T20:32:56.376Z,14.86
2022-10-04T20:36:00.608Z,14.82
2022-10-04T20:38:45.026Z,14.81
2022-10-04T20:42:09.829Z,14.81
2022-10-04T20:44:58.428Z,14.92
2022-10-04T20:47:40.704Z,14.87
2022-10-04T20:50:17.741Z,14.81
2022-10-04T20:52:48.467Z,14.82
2022-10-04T20:55:27.709Z,14.80
2022-10-04T20:58:01.154Z,14.84
2022-10-04T21:00:35.621Z,14.79
2022-10-04T21:03:18.951Z,14.80
2022-10-04T21:06:04.365Z,14.80
2022-10-04T21:08:33.368Z,14.86
2022-10-04T21:11:18.345Z,14.84
2022-10-04T21:13:58.558Z,14.86
2022-10-04T21:16:39.380Z,14.87
2022-10-04T21:19:44.517Z,14.88
2022-10-04T21:22:34.058Z,14.89
2022-10-04T21:25:03.777Z,14.90
2022-10-04T21:27:34.658Z,14.84
2022-10-04T21:30:07.920Z,14.84
2022-10-04T21:32:38.109Z,14.88
2022-10-04T21:35:08.763Z,14.84
2022-10-04T21:37:41.026Z,14.88
2022-10-04T21:40:14.774Z,14.86
2022-10-04T21:42:43.367Z,14.88
2022-10-04T21:45:13.594Z,14.89
2022-10-04T21:47:42.150Z,14.85
2022-10-04T21:50:11.205Z,14.89
2022-10-04T21:52:40.961Z,14.83
2022-10-04T21:55:10.970Z,14.80
2022-10-04T21:57:39.511Z,14.83
2022-10-04T22:00:09.410Z,14.78
2022-10-04T22:02:39.495Z,14.77
2022-10-04T22:05:11.086Z,14.80
2022-10-04T22:07:39.762Z,14.91
2022-10-04T22:10:08.917Z,14.87
2022-10-04T22:12:37.443Z,14.89
2022-10-04T22:15:06.850Z,14.88
2022-10-04T22:17:36.849Z,14.84
2022-10-04T22:20:08.142Z,14.84
2022-10-04T22:22:39.765Z,14.84
2022-10-04T22:25:16.728Z,14.99
2022-10-04T22:27:46.917Z,14.96
2022-10-04T22:30:23.731Z,14.95
2022-10-04T22:32:52.521Z,14.98
2022-10-04T22:35:23.884Z,14.98
2022-10-04T22:37:52.435Z,15.06
2022-10-04T22:40:23.328Z,14.97
2022-10-04T22:42:53.759Z,14.93
2022-10-04T22:45:26.029Z,14.90
2022-10-04T22:47:59.243Z,14.87
2022-10-04T22:50:34.120Z,14.84
2022-10-04T22:53:09.311Z,14.76
2022-10-04T22:55:37.947Z,14.69
2022-10-04T22:58:06.618Z,14.67
2022-10-04T23:00:35.012Z,14.67
2022-10-04T23:03:04.257Z,14.65
2022-10-04T23:05:34.579Z,14.65
2022-10-04T23:08:07.258Z,14.62
2022-10-04T23:10:36.168Z,14.58
2022-10-04T23:13:04.560Z,14.56
2022-10-04T23:15:33.101Z,14.61
2022-10-04T23:18:01.886Z,14.66
2022-10-04T23:20:34.693Z,14.67
2022-10-04T23:23:04.623Z,14.68
2022-10-04T23:25:34.010Z,14.64
2022-10-04T23:28:13.984Z,14.67
2022-10-04T23:31:06.472Z,14.74
2022-10-04T23:33:37.133Z,14.73
2022-10-04T23:36:12.127Z,14.78
2022-10-04T23:38:48.375Z,14.83
2022-10-04T23:41:19.570Z,14.88
2022-10-04T23:43:49.647Z,14.86
2022-10-04T23:46:21.360Z,14.88
2022-10-04T23:48:51.520Z,14.80
2022-10-04T23:51:22.805Z,14.74
2022-10-04T23:53:52.199Z,14.74
2022-10-04T23:56:25.312Z,14.73
2022-10-04T23:58:56.386Z,14.70
